createdAt,value
2019-02-07T00:00:21.689Z,97.80
2019-02-07T00:05:25.394Z,97.60
2019-02-07T00:10:29.222Z,97.80
2019-02-07T00:15:33.281Z,97.70
2019-02-07T00:20:37.308Z,97.70
2019-02-07T00:25:41.101Z,98.00
2019-02-07T00:30:45.107Z,97.90
2019-02-07T00:35:48.904Z,98.10
2019-02-07T00:40:52.904Z,98.10
2019-02-07T00:45:56.632Z,97.90
2019-02-07T00:51:00.415Z,97.70
2019-02-07T00:56:09.157Z,97.90
2019-02-07T01:01:12.844Z,97.60
2019-02-07T01:06:16.824Z,97.60
2019-02-07T01:11:20.967Z,97.40
2019-02-07T01:16:24.660Z,97.40
2019-02-07T01:21:28.390Z,97.50
2019-02-07T01:26:32.635Z,97.90
2019-02-07T01:31:36.515Z,97.80
2019-02-07T01:36:40.287Z,97.80
2019-02-07T01:41:44.065Z,97.50
2019-02-07T01:46:47.774Z,97.40
2019-02-07T01:51:51.941Z,97.50
2019-02-07T01:56:55.814Z,97.50
2019-02-07T02:01:59.584Z,97.40
2019-02-07T02:07:03.624Z,97.20
2019-02-07T02:12:07.523Z,97.10
2019-02-07T02:17:11.355Z,97.40
2019-02-07T02:22:15.371Z,97.50
2019-02-07T02:27:19.265Z,97.30
2019-02-07T02:32:23.014Z,97.10
2019-02-07T02:37:27.079Z,97.60
2019-02-07T02:42:31.308Z,96.80
2019-02-07T02:47:35.513Z,96.80
2019-02-07T02:52:40.409Z,96.60
2019-02-07T02:57:44.659Z,96.60
2019-02-07T03:03:06.423Z,96.90
2019-02-07T03:08:44.667Z,97.30
2019-02-07T03:14:06.136Z,97.30
2019-02-07T03:19:21.973Z,97.50
2019-02-07T03:24:44.913Z,97.80
2019-02-07T03:30:19.250Z,97.80
2019-02-07T03:35:41.496Z,97.70
2019-02-07T03:40:53.827Z,97.80
2019-02-07T03:46:19.447Z,97.80
2019-02-07T03:51:49.140Z,97.30
2019-02-07T03:57:03.673Z,97.10
2019-02-07T04:02:25.225Z,97.10
2019-02-07T04:07:54.796Z,96.70
2019-02-07T04:13:27.146Z,96.80
2019-02-07T04:19:00.985Z,96.60
2019-02-07T04:24:18.617Z,96.30
2019-02-07T04:29:47.365Z,96.10
2019-02-07T04:35:13.138Z,96.30
2019-02-07T04:40:35.124Z,96.20
2019-02-07T04:45:50.521Z,96.40
2019-02-07T04:51:12.011Z,96.10
2019-02-07T04:56:33.580Z,96.00
2019-02-07T05:01:50.250Z,95.90
2019-02-07T05:07:11.754Z,95.40
2019-02-07T05:12:24.213Z,95.20
2019-02-07T05:17:36.331Z,95.50
2019-02-07T05:22:53.160Z,95.60
2019-02-07T05:28:16.245Z,95.80
2019-02-07T05:33:43.010Z,95.60
2019-02-07T05:39:04.798Z,95.50
2019-02-07T05:44:15.200Z,95.60
2019-02-07T05:49:45.574Z,95.50
2019-02-07T05:55:07.389Z,95.80
2019-02-07T06:00:29.344Z,95.70
2019-02-07T06:05:50.728Z,95.90
2019-02-07T06:11:22.951Z,95.90
2019-02-07T06:16:48.761Z,96.10
2019-02-07T06:22:00.153Z,95.80
2019-02-07T06:27:23.018Z,95.60
2019-02-07T06:32:34.837Z,95.90
2019-02-07T06:37:56.292Z,95.40
2019-02-07T06:43:12.176Z,95.10
2019-02-07T06:48:33.712Z,95.40
2019-02-07T06:53:55.229Z,95.30
2019-02-07T06:59:06.762Z,95.90
2019-02-07T07:04:38.191Z,95.00
2019-02-07T07:10:03.847Z,95.00
2019-02-07T07:15:17.022Z,95.20
2019-02-07T07:20:52.296Z,93.90
2019-02-07T07:26:22.939Z,93.70
2019-02-07T07:31:43.144Z,93.00
2019-02-07T07:37:13.212Z,92.40
2019-02-07T07:42:28.485Z,90.60
2019-02-07T07:47:43.485Z,90.00
2019-02-07T07:52:57.033Z,88.50
2019-02-07T07:58:22.456Z,90.20
2019-02-07T08:03:45.260Z,87.90
2019-02-07T08:09:07.015Z,86.40
2019-02-07T08:14:20.427Z,87.70
2019-02-07T08:19:47.903Z,85.30
2019-02-07T08:25:09.633Z,77.80
2019-02-07T08:30:42.276Z,74.80
2019-02-07T08:36:04.123Z,70.40
2019-02-07T08:41:21.037Z,67.40
2019-02-07T08:46:50.568Z,67.50
2019-02-07T08:52:23.872Z,71.60
2019-02-07T08:57:33.748Z,75.20
2019-02-07T09:03:12.068Z,77.80
2019-02-07T09:08:35.877Z,79.10
2019-02-07T09:13:58.694Z,75.00
2019-02-07T09:19:11.176Z,76.80
2019-02-07T09:24:36.854Z,79.00
2019-02-07T09:30:00.306Z,81.00
2019-02-07T09:35:15.534Z,82.60
2019-02-07T09:40:41.980Z,85.90
2019-02-07T09:46:03.969Z,85.20
2019-02-07T09:51:27.723Z,86.80
2019-02-07T09:56:56.528Z,88.20
2019-02-07T10:02:28.356Z,88.30
2019-02-07T10:07:47.887Z,87.20
2019-02-07T10:13:16.213Z,89.90
2019-02-07T10:18:33.130Z,87.50
2019-02-07T10:23:42.082Z,88.00
2019-02-07T10:29:09.972Z,89.00
2019-02-07T10:34:31.917Z,88.50
2019-02-07T10:40:13.266Z,88.20
2019-02-07T10:45:35.013Z,90.20
2019-02-07T10:50:59.476Z,87.80
2019-02-07T10:56:21.991Z,89.40
2019-02-07T11:01:44.213Z,90.20
2019-02-07T11:07:19.406Z,90.20
2019-02-07T11:12:36.236Z,90.10
2019-02-07T11:17:52.617Z,90.80
2019-02-07T11:23:16.101Z,90.00
2019-02-07T11:28:29.261Z,90.70
2019-02-07T11:34:02.759Z,90.00
2019-02-07T11:39:25.743Z,91.60
2019-02-07T11:44:47.348Z,90.10
2019-02-07T11:50:09.645Z,90.40
2019-02-07T11:55:32.457Z,90.00
2019-02-07T12:01:01.540Z,90.80
2019-02-07T12:06:37.133Z,90.60
2019-02-07T12:12:06.407Z,90.20
2019-02-07T12:17:22.957Z,86.50
2019-02-07T12:22:43.971Z,86.90
2019-02-07T12:28:05.909Z,83.10
2019-02-07T12:33:27.705Z,82.20
2019-02-07T12:38:36.926Z,81.70
2019-02-07T12:44:00.423Z,81.90
2019-02-07T12:49:36.758Z,81.00
2019-02-07T12:54:47.556Z,83.40
2019-02-07T13:00:19.646Z,84.10
2019-02-07T13:05:43.088Z,83.40
2019-02-07T13:11:11.151Z,83.70
2019-02-07T13:16:52.201Z,83.80
2019-02-07T13:22:07.814Z,82.90
2019-02-07T13:27:29.444Z,84.30
2019-02-07T13:32:52.000Z,86.00
2019-02-07T13:38:24.987Z,86.20
2019-02-07T13:44:06.177Z,86.90
2019-02-07T13:49:28.095Z,87.00
2019-02-07T13:54:40.056Z,88.40
2019-02-07T14:00:02.180Z,87.30
2019-02-07T14:05:20.820Z,89.50
2019-02-07T14:10:42.637Z,88.10
2019-02-07T14:16:03.449Z,87.70
2019-02-07T14:21:28.428Z,87.50
2019-02-07T14:26:44.605Z,88.40
2019-02-07T14:32:07.587Z,89.30
2019-02-07T14:37:33.417Z,90.20
2019-02-07T14:42:59.257Z,90.80
2019-02-07T14:48:03.128Z,91.10
2019-02-07T14:53:06.956Z,92.30
2019-02-07T14:58:10.988Z,91.70
2019-02-07T15:03:14.928Z,92.10
2019-02-07T15:08:19.431Z,92.70
2019-02-07T15:13:23.351Z,92.40
2019-02-07T15:18:27.104Z,93.00
2019-02-07T15:23:31.118Z,94.20
2019-02-07T15:28:35.125Z,95.40
2019-02-07T15:33:39.028Z,96.50
2019-02-07T15:38:42.767Z,96.80
2019-02-07T15:43:47.120Z,97.90
2019-02-07T15:48:50.890Z,99.30
2019-02-07T15:53:54.737Z,99.00
2019-02-07T15:59:15.007Z,99.90
2019-02-07T16:04:24.806Z,99.90
2019-02-07T16:09:28.556Z,99.90
2019-02-07T16:14:32.281Z,99.90
2019-02-07T16:19:37.668Z,99.90
2019-02-07T16:24:41.393Z,99.90
2019-02-07T16:29:45.161Z,99.90
2019-02-07T16:34:49.107Z,99.90
2019-02-07T16:39:53.114Z,99.90
2019-02-07T16:44:56.875Z,99.90
2019-02-07T16:50:00.546Z,99.90
2019-02-07T16:55:06.613Z,99.90
2019-02-07T17:00:20.557Z,99.90
2019-02-07T17:05:25.313Z,99.90
2019-02-07T17:10:31.958Z,99.90
2019-02-07T17:15:35.941Z,99.90
2019-02-07T17:20:40.144Z,99.90
2019-02-07T17:25:43.820Z,99.90
2019-02-07T17:30:48.089Z,99.90
2019-02-07T17:35:51.898Z,99.90
2019-02-07T17:40:55.845Z,99.90
2019-02-07T17:45:59.864Z,99.90
2019-02-07T17:51:03.576Z,99.90
2019-02-07T17:56:07.860Z,99.90
2019-02-07T18:01:11.722Z,99.90
2019-02-07T18:06:15.463Z,99.90
2019-02-07T18:11:19.224Z,99.90
2019-02-07T18:16:22.959Z,99.90
2019-02-07T18:21:33.979Z,99.90
2019-02-07T18:26:32.699Z,99.90
2019-02-07T18:31:37.136Z,99.90
2019-02-07T18:36:40.960Z,99.90
2019-02-07T18:41:44.632Z,99.90
2019-02-07T18:46:48.613Z,99.90
2019-02-07T18:51:52.640Z,99.90
2019-02-07T18:56:56.321Z,99.90
2019-02-07T19:02:00.336Z,99.90
2019-02-07T19:07:05.210Z,99.90
2019-02-07T19:12:09.335Z,99.90
2019-02-07T19:17:13.007Z,99.90
2019-02-07T19:22:16.707Z,99.90
2019-02-07T19:27:20.449Z,99.90
2019-02-07T19:32:24.099Z,99.90
2019-02-07T19:37:28.178Z,99.90
2019-02-07T19:42:32.086Z,99.90
2019-02-07T19:47:35.851Z,99.90
2019-02-07T19:52:39.813Z,99.90
2019-02-07T19:57:43.551Z,99.90
2019-02-07T20:02:47.758Z,99.90
2019-02-07T20:07:51.501Z,99.90
2019-02-07T20:12:55.355Z,99.90
2019-02-07T20:18:00.135Z,99.90
2019-02-07T20:23:04.207Z,99.90
2019-02-07T20:28:08.037Z,99.90
2019-02-07T20:33:11.943Z,99.90
2019-02-07T20:38:16.058Z,99.90
2019-02-07T20:43:20.608Z,99.90
2019-02-07T20:48:24.329Z,99.90
2019-02-07T20:53:28.447Z,99.90
2019-02-07T20:58:32.228Z,99.90
2019-02-07T21:03:35.998Z,99.90
2019-02-07T21:08:40.116Z,99.90
2019-02-07T21:13:43.962Z,99.90
2019-02-07T21:18:48.200Z,99.90
2019-02-07T21:23:52.361Z,99.90
2019-02-07T21:28:56.214Z,99.90
2019-02-07T21:34:00.277Z,99.90
2019-02-07T21:39:09.329Z,99.90
2019-02-07T21:44:13.030Z,99.90
2019-02-07T21:49:17.227Z,99.90
2019-02-07T21:54:21.084Z,99.90
2019-02-07T21:59:25.068Z,99.90
2019-02-07T22:04:28.791Z,99.90
2019-02-07T22:09:32.553Z,99.90
2019-02-07T22:14:36.632Z,99.90
2019-02-07T22:19:40.368Z,99.90
2019-02-07T22:24:44.062Z,99.90
2019-02-07T22:29:47.765Z,99.90
2019-02-07T22:34:51.685Z,99.90
2019-02-07T22:39:56.195Z,99.90
2019-02-07T22:45:00.021Z,99.90
2019-02-07T22:50:04.823Z,99.90
2019-02-07T22:55:09.468Z,99.90
2019-02-07T23:01:08.232Z,99.90
2019-02-07T23:06:12.141Z,99.90
2019-02-07T23:11:15.979Z,99.90
2019-02-07T23:16:20.371Z,99.90
2019-02-07T23:21:24.552Z,99.90
2019-02-07T23:26:28.281Z,99.90
2019-02-07T23:31:32.512Z,99.90
2019-02-07T23:36:36.317Z,99.90
2019-02-07T23:41:40.128Z,99.90
2019-02-07T23:46:44.217Z,99.90
2019-02-07T23:51:47.931Z,99.90
2019-02-07T23:56:51.632Z,99.90
